Arvin
DateTemperatureDew Point
05/06 - 07:30 AM56.5°54.4°
05/06 - 07:15 AM54.8°53.5°
05/06 - 07:00 AM53.3°52.0°
05/06 - 06:45 AM51.9°50.4°
05/06 - 06:30 AM50.6°48.9°
05/06 - 06:15 AM50.0°48.0°
05/06 - 06:00 AM50.0°47.7°
05/06 - 05:45 AM50.4°48.0°
05/06 - 05:30 AM50.9°48.4°
05/06 - 05:15 AM51.5°49.2°
05/06 - 05:00 AM51.9°49.7°
05/06 - 04:45 AM52.4°50.1°
05/06 - 04:30 AM52.8°50.6°
05/06 - 04:15 AM52.9°50.7°
05/06 - 04:00 AM53.1°50.9°
05/06 - 03:45 AM53.3°51.1°
05/06 - 03:30 AM53.2°50.9°
05/06 - 03:15 AM53.2°50.9°
05/06 - 03:00 AM53.3°51.1°
05/06 - 02:45 AM53.5°51.3°
05/06 - 02:30 AM53.7°51.7°
05/06 - 02:15 AM53.6°51.6°
05/06 - 02:00 AM53.2°51.2°
05/06 - 01:45 AM52.9°51.0°
05/06 - 01:30 AM52.5°50.6°
05/06 - 01:15 AM52.3°50.3°
05/06 - 01:00 AM51.8°49.9°
05/06 - 12:45 AM51.3°49.4°
05/06 - 12:30 AM50.7°48.5°
05/06 - 12:15 AM50.6°48.3°
05/06 - 12:00 AM50.8°48.4°
05/05 - 11:45 PM51.0°48.5°
05/05 - 11:30 PM51.4°48.9°
05/05 - 11:15 PM51.6°49.2°
05/05 - 11:00 PM51.5°49.0°
05/05 - 10:45 PM51.6°48.9°
05/05 - 10:30 PM51.9°48.9°
05/05 - 10:15 PM52.6°49.2°
05/05 - 10:00 PM53.4°49.6°
05/05 - 09:45 PM54.5°50.4°
05/05 - 09:30 PM55.0°50.8°
05/05 - 09:15 PM55.2°50.8°
05/05 - 09:00 PM55.8°51.0°
05/05 - 08:45 PM56.3°51.0°
05/05 - 08:30 PM56.7°51.0°
05/05 - 08:15 PM57.3°51.3°
05/05 - 08:00 PM58.1°51.5°
05/05 - 07:45 PM58.7°51.9°
05/05 - 07:30 PM59.0°52.0°
05/05 - 07:15 PM59.0°52.4°
05/05 - 07:00 PM59.1°52.9°
05/05 - 06:45 PM59.2°53.0°
05/05 - 06:30 PM59.2°53.4°
05/05 - 06:15 PM59.5°54.2°
05/05 - 06:00 PM59.7°53.7°
05/05 - 05:45 PM59.9°53.7°
05/05 - 05:30 PM59.9°54.3°
05/05 - 05:15 PM59.5°54.4°
05/05 - 05:00 PM58.8°54.1°
05/05 - 04:45 PM58.4°53.5°
05/05 - 04:30 PM58.1°53.7°
05/05 - 04:15 PM58.4°54.1°
05/05 - 04:00 PM58.5°54.2°
05/05 - 03:45 PM58.5°54.4°
05/05 - 03:30 PM58.3°54.1°
05/05 - 03:15 PM59.2°55.2°
05/05 - 03:00 PM59.0°56.0°
05/05 - 02:45 PM57.7°55.0°
05/05 - 02:30 PM57.8°55.0°
05/05 - 02:15 PM58.4°55.9°
05/05 - 02:00 PM57.5°55.6°
05/05 - 01:45 PM56.7°54.9°
05/05 - 01:30 PM57.1°55.6°
05/05 - 01:15 PM57.0°55.5°
05/05 - 01:00 PM56.2°54.8°
05/05 - 12:45 PM55.5°54.1°
05/05 - 12:30 PM55.1°53.7°
05/05 - 12:15 PM54.8°53.4°
05/05 - 12:00 PM54.4°53.0°
05/05 - 11:45 AM54.2°52.7°
05/05 - 11:30 AM54.2°52.7°
05/05 - 11:15 AM54.2°52.6°
05/05 - 11:00 AM54.3°52.6°
05/05 - 10:45 AM54.4°52.7°
05/05 - 10:30 AM54.4°52.7°
05/05 - 10:15 AM54.2°52.4°
05/05 - 10:00 AM54.2°52.3°
05/05 - 09:45 AM54.2°52.2°
05/05 - 09:30 AM54.2°52.0°
05/05 - 09:15 AM54.1°51.8°
05/05 - 09:00 AM53.9°51.3°
05/05 - 08:45 AM53.9°50.8°
05/05 - 08:30 AM54.2°50.2°
05/05 - 08:15 AM54.7°49.7°
05/05 - 08:00 AM54.6°49.7°
05/05 - 07:45 AM54.5°49.9°
05/05 - 07:30 AM54.3°50.2°
05/05 - 07:15 AM54.4°51.0°
05/05 - 07:00 AM54.4°50.8°
05/05 - 06:45 AM54.3°50.4°
05/05 - 06:30 AM54.6°50.5°
05/05 - 06:15 AM54.8°50.6°
05/05 - 06:00 AM55.0°51.1°
05/05 - 05:45 AM55.4°51.3°
05/05 - 05:30 AM55.9°51.6°
05/05 - 05:15 AM56.4°51.4°
05/05 - 05:00 AM56.7°51.4°
05/05 - 04:45 AM56.6°50.1°
05/05 - 04:30 AM56.6°50.0°
05/05 - 04:15 AM56.5°50.0°
05/05 - 04:00 AM56.6°50.7°
05/05 - 03:45 AM56.7°51.1°
05/05 - 03:30 AM56.7°50.9°
05/05 - 03:15 AM56.9°50.8°
05/05 - 03:00 AM57.0°50.7°
05/05 - 02:45 AM57.2°50.5°
05/05 - 02:30 AM57.5°50.3°
05/05 - 02:15 AM57.6°49.6°
05/05 - 02:00 AM57.8°49.5°
05/05 - 01:45 AM58.0°49.4°
05/05 - 01:30 AM58.3°49.4°
05/05 - 01:15 AM58.6°49.3°
05/05 - 01:00 AM58.8°49.0°
05/05 - 12:45 AM59.1°48.7°
05/05 - 12:30 AM59.3°48.5°
05/05 - 12:15 AM59.5°48.2°
05/05 - 12:00 AM59.7°48.7°
05/04 - 11:45 PM59.9°49.7°
05/04 - 11:30 PM60.1°49.9°
05/04 - 11:15 PM60.3°50.0°
05/04 - 11:00 PM60.5°50.2°
05/04 - 10:45 PM60.9°50.0°
05/04 - 10:30 PM61.1°49.9°
05/04 - 10:15 PM61.3°49.5°
05/04 - 10:00 PM61.3°48.5°
05/04 - 09:45 PM61.1°48.9°
05/04 - 09:30 PM60.9°49.7°
05/04 - 09:15 PM60.7°49.9°
05/04 - 09:00 PM60.9°50.4°
05/04 - 08:45 PM61.5°50.3°
05/04 - 08:30 PM62.3°50.0°
05/04 - 08:15 PM63.3°49.8°
05/04 - 08:00 PM64.0°49.5°
05/04 - 07:45 PM64.7°49.5°
05/04 - 07:30 PM65.1°48.5°
05/04 - 07:15 PM65.3°48.1°
05/04 - 07:00 PM65.7°48.5°
05/04 - 06:45 PM66.6°49.2°
05/04 - 06:30 PM67.3°48.7°
05/04 - 06:15 PM67.8°48.6°
05/04 - 06:00 PM68.6°48.3°
05/04 - 05:45 PM68.6°48.2°
05/04 - 05:30 PM69.6°48.8°
05/04 - 05:15 PM70.9°49.0°
05/04 - 05:00 PM71.9°49.5°
05/04 - 04:45 PM72.3°49.5°
05/04 - 04:30 PM71.8°49.8°
05/04 - 04:15 PM70.6°49.5°
05/04 - 04:00 PM71.0°49.4°
05/04 - 03:45 PM72.2°50.1°
05/04 - 03:30 PM71.3°49.7°
05/04 - 03:15 PM71.4°50.2°
05/04 - 03:00 PM70.4°49.9°
05/04 - 02:45 PM70.9°49.2°
05/04 - 02:30 PM71.2°49.9°
05/04 - 02:15 PM71.4°49.7°
05/04 - 02:00 PM70.5°50.2°
05/04 - 01:45 PM69.5°49.9°
05/04 - 01:30 PM69.6°49.9°
05/04 - 01:15 PM71.3°50.8°
05/04 - 01:00 PM72.3°51.2°
05/04 - 12:45 PM71.2°50.7°
05/04 - 12:30 PM70.5°50.7°
05/04 - 12:15 PM68.2°50.1°
05/04 - 12:00 PM69.4°50.7°
05/04 - 11:45 AM66.5°50.1°
05/04 - 11:30 AM67.9°50.0°
05/04 - 11:15 AM69.1°50.5°
05/04 - 11:00 AM67.2°49.9°
05/04 - 10:45 AM64.9°49.5°
05/04 - 10:30 AM65.1°49.3°
05/04 - 10:15 AM64.7°49.1°
05/04 - 10:00 AM63.1°48.4°
05/04 - 09:45 AM62.3°48.0°
05/04 - 09:30 AM61.6°48.0°
05/04 - 09:15 AM60.9°47.2°
05/04 - 09:00 AM60.6°47.1°
05/04 - 08:45 AM60.0°46.9°
05/04 - 08:30 AM59.6°46.6°
05/04 - 08:15 AM59.3°46.4°
05/04 - 08:00 AM58.9°46.3°